• Join FlightAware (Why Join?)
  • Login
  • US Flag 
11:19PM EDT


 

Airport Tracker/Info


-or-


 

Live Flight TrackerFlight Track Log ✈ UAL4257 ✈ 28-Apr-2013 ✈ MMMY / MTY - KIAH

Flight Track Log - Related Links

Times and Time Zones

All times are in EDT time to prevent confusion due to time zone crossing. See the UAL4257 flight status page for this flight to view local times or setup timezone preferences in your user account.

Time Position Orientation Groundspeed Altitude Reporting Facility
EDT Latitude Longitude Course Direction KTS MPH feet Rate Location/Type
12:50PM 26.5725 -99.5772 North 326 375 23,400  Level Houston Center
12:51PM 26.6658 -99.5658 North 331 381 24,400 960 Climbing Houston Center
12:52PM 26.7631 -99.5492 North 341 392 25,400 900 Climbing Houston Center
12:53PM 26.8636 -99.5306 North 360 414 26,300 900 Climbing Houston Center
12:54PM 26.9636 -99.5069 12° North 366 421 27,300 960 Climbing Houston Center
12:55PM 27.0550 -99.4019 46° Northeast 386 444 28,400 960 Climbing Houston Center
12:56PM 27.1278 -99.3106 48° Northeast 393 452 29,400 900 Climbing Houston Center
12:57PM 27.2014 -99.2175 48° Northeast 397 457 30,300 900 Climbing Houston Center
12:58PM 27.2775 -99.1231 48° Northeast 405 466 31,300 900 Climbing Houston Center
12:59PM 27.3522 -99.0269 49° Northeast 410 472 32,200 780 Climbing Houston Center
01:00PM 27.4364 -98.9231 48° Northeast 419 482 33,000 300 Climbing Houston Center
01:01PM 27.5233 -98.8128 48° Northeast 444 511 32,900 -60 Descending Houston Center
01:02PM 27.6031 -98.7117 48° Northeast 437 503 32,900 420 Level Houston Center
01:03PM 27.6803 -98.6125 49° Northeast 426 490 33,800 1,140 Climbing Houston Center
01:04PM 27.7728 -98.4947 48° Northeast 421 484 35,300 1,200 Climbing Houston Center
01:06PM 27.8472 -98.3986 49° Northeast 410 472 36,300 720 Climbing Houston Center
01:07PM 27.9214 -98.3039 48° Northeast 405 466 36,900 300 Climbing Houston Center
01:08PM 27.9981 -98.2067 48° Northeast 411 473 37,000  Climbing Houston Center
01:09PM 28.0775 -98.1042 49° Northeast 430 495 36,900 -60 Descending Houston Center
01:10PM 28.1589 -98.0000 48° Northeast 439 505 36,900  Level Houston Center
01:11PM 28.2478 -97.8861 48° Northeast 422 486 37,000  Climbing Houston Center
01:12PM 28.3239 -97.7867 49° Northeast 419 482 37,000 -60 Level Houston Center
01:13PM 28.4017 -97.6858 49° Northeast 423 487 36,900  Descending Houston Center
01:14PM 28.4831 -97.5803 49° Northeast 438 504 37,000  Climbing Houston Center
01:15PM 28.5642 -97.4736 49° Northeast 444 511 36,900 -780 Descending Houston Center
01:16PM 28.6617 -97.3450 49° Northeast 447 514 35,500 -1,500 Descending Houston Center
01:17PM 28.7417 -97.2408 49° Northeast 442 509 33,900 -1,560 Descending Houston Center
01:18PM 28.8203 -97.1369 49° Northeast 436 502 32,300 -2,040 Descending Houston Center
01:19PM 28.9031 -97.0286 49° Northeast 448 516 29,800 -3,000 Descending Houston Center
01:20PM 28.9911 -96.9108 49° Northeast 481 554 26,200 -3,420 Descending Houston Center
01:21PM 29.0942 -96.7739 49° Northeast 480 552 22,800 -3,000 Descending Houston Center
01:22PM 29.1717 -96.6683 50° Northeast 449 517 20,100 -2,640 Descending Houston Center
01:23PM 29.2453 -96.5711 49° Northeast 414 476 17,400 -2,640 Descending Houston Center
01:24PM 29.3103 -96.4850 49° Northeast 381 438 15,300 -2,280 Descending Houston Center
01:25PM 29.3706 -96.4042 49° Northeast 381 438 13,500 -1,860 Descending Houston Center
01:25PM 29.3822 -96.3872 52° Northeast 380 437 13,000 -2,100 Descending Houston Center
01:26PM 29.4517 -96.2969 49° Northeast 382 440 11,200 -1,740 Descending Houston Center
01:27PM 29.5119 -96.2136 50° Northeast 367 422 10,100 -960 Descending Houston Center
01:27PM 29.5289 -96.1886 52° Northeast 366 421 10,000 -120 Descending Houston Center
01:28PM 29.5689 -96.1208 56° Northeast 360 414 10,000  Level Houston Center
01:28PM 29.5842 -96.0922 58° Northeast 364 419 10,000  Level Houston Center
01:29PM 29.6156 -96.0292 60° Northeast 326 375 10,000 -420 Level Houston Center
01:29PM 29.6269 -96.0053 61° Northeast 311 358 9,600 -1,920 Descending Houston Center
01:30PM 29.6633 -95.9517 52° Northeast 270 311 8,100 -1,980 Descending Houston Center
01:30PM 29.6886 -95.9353 29° Northeast 280 322 7,600 -1,020 Descending Houston Center
01:31PM 29.7333 -95.9100 26° Northeast 245 282 7,000 -600 Descending Houston Center
01:31PM 29.7508 -95.9000 26° Northeast 254 292 7,000  Level Houston Center
01:32PM 29.7911 -95.8767 27° Northeast 227 261 7,000  Level Houston Center
01:32PM 29.8078 -95.8681 24° Northeast 231 266 7,000  Level Houston Center
01:33PM 29.8453 -95.8489 24° Northeast 233 268 7,000 -420 Level Houston Center
01:33PM 29.8658 -95.8364 28° Northeast 230 265 6,600 -1,140 Descending Houston Center
01:34PM 29.9014 -95.8158 27° Northeast 226 260 5,900 -1,020 Descending Houston Center
01:34PM 29.9225 -95.8039 26° Northeast 228 262 5,600 -900 Descending Houston Center
01:35PM 29.9517 -95.7692 46° Northeast 219 252 5,000 -600 Descending Houston Center
01:35PM 29.9611 -95.7511 59° Northeast 225 259 5,000 -240 Level Houston Center
01:36PM 29.9817 -95.7053 63° Northeast 231 266 4,800 -600 Descending Houston Center
01:36PM 29.9914 -95.6867 59° Northeast 228 262 4,400 -1,320 Descending Houston Center
01:37PM 29.9922 -95.6342 89° East 230 265 3,500 -1,200 Descending Houston Center
01:38PM 29.9942 -95.5989 86° East 228 262 3,200 -480 Descending Houston Center
01:38PM 29.9933 -95.5544 91° East 212 244 3,000 -240 Descending Houston Center
01:39PM 29.9936 -95.5308 89° East 218 251 3,000 -600 Level Houston Center
01:39PM 29.9919 -95.4919 93° East 199 229 2,400 -1,020 Descending Houston Center
01:40PM 29.9933 -95.4678 86° East 208 239 2,000 -1,020 Descending Houston Center
01:40PM 29.9928 -95.4314 91° East 186 214 1,400 -900 Descending Houston Center
01:41PM 29.9939 -95.4111 86° East 194 223 1,100 -840 Descending Houston Center
01:41PM 29.9928 -95.3833 93° East 136 157 600 -780 Descending Houston Center
01:42PM 29.9936 -95.3672 87° East 164 189 300 -660 Descending Houston Center
01:44PM 29.9833 -95.3333 49° Northeast  Level FlightAware Approximate